createdAt,value
2018-04-26T00:00:04.107Z,0.00
2018-04-26T00:01:04.087Z,0.00
2018-04-26T00:02:04.082Z,0.00
2018-04-26T00:03:04.058Z,0.00
2018-04-26T00:04:04.039Z,0.00
2018-04-26T00:05:04.026Z,0.00
2018-04-26T00:06:04.007Z,0.00
2018-04-26T00:07:03.991Z,0.00
2018-04-26T00:08:03.967Z,0.00
2018-04-26T00:09:03.953Z,0.00
2018-04-26T00:10:03.936Z,0.00
2018-04-26T00:11:03.922Z,0.00
2018-04-26T00:12:03.902Z,0.00
2018-04-26T00:13:03.984Z,0.00
2018-04-26T00:14:03.868Z,0.00
2018-04-26T00:15:03.859Z,0.00
2018-04-26T00:16:03.829Z,0.00
2018-04-26T00:17:03.823Z,0.00
2018-04-26T00:18:03.799Z,0.00
2018-04-26T00:19:03.879Z,0.00
2018-04-26T00:20:03.763Z,0.00
2018-04-26T00:21:03.899Z,0.00
2018-04-26T00:22:03.726Z,0.00
2018-04-26T00:23:03.709Z,0.00
2018-04-26T00:24:03.698Z,0.00
2018-04-26T00:25:03.780Z,0.00
2018-04-26T00:26:03.657Z,0.00
2018-04-26T00:27:03.644Z,0.00
2018-04-26T00:28:03.622Z,0.00
2018-04-26T00:29:03.710Z,0.00
2018-04-26T00:30:03.588Z,0.00
2018-04-26T00:31:03.674Z,0.00
2018-04-26T00:32:03.559Z,0.00
2018-04-26T00:33:03.536Z,0.00
2018-04-26T00:34:03.529Z,0.00
2018-04-26T00:35:03.610Z,0.00
2018-04-26T00:36:03.487Z,0.00
2018-04-26T00:37:03.518Z,0.00
2018-04-26T00:38:03.450Z,0.00
2018-04-26T00:39:03.532Z,0.00
2018-04-26T00:40:03.417Z,0.00
2018-04-26T00:41:03.401Z,0.00
2018-04-26T00:42:03.377Z,0.00
2018-04-26T00:43:03.414Z,0.00
2018-04-26T00:44:03.350Z,0.00
2018-04-26T00:45:03.379Z,0.00
2018-04-26T00:46:03.312Z,0.00
2018-04-26T00:47:03.350Z,0.00
2018-04-26T00:48:03.282Z,0.00
2018-04-26T00:49:03.309Z,0.00
2018-04-26T00:50:03.238Z,0.00
2018-04-26T00:51:03.227Z,0.00
2018-04-26T00:52:03.203Z,0.00
2018-04-26T00:53:03.187Z,0.00
2018-04-26T00:54:03.175Z,0.00
2018-04-26T00:55:03.151Z,0.00
2018-04-26T00:56:03.138Z,0.00
2018-04-26T00:57:03.117Z,0.00
2018-04-26T00:58:03.098Z,0.00
2018-04-26T00:59:03.086Z,0.00
2018-04-26T01:00:03.065Z,0.00
2018-04-26T01:01:03.047Z,0.00
2018-04-26T01:02:03.036Z,0.00
2018-04-26T01:03:03.016Z,0.00
2018-04-26T01:04:03.000Z,0.00
2018-04-26T01:05:02.978Z,0.00
2018-04-26T01:06:02.961Z,0.00
2018-04-26T01:07:02.949Z,0.00
2018-04-26T01:08:02.928Z,0.00
2018-04-26T01:09:02.910Z,0.00
2018-04-26T01:10:02.907Z,0.00
2018-04-26T01:11:02.878Z,0.00
2018-04-26T01:12:02.860Z,0.00
2018-04-26T01:13:02.849Z,0.00
2018-04-26T01:14:02.832Z,0.00
2018-04-26T01:15:02.810Z,0.00
2018-04-26T01:16:02.788Z,0.00
2018-04-26T01:17:02.775Z,0.00
2018-04-26T01:18:02.759Z,0.00
2018-04-26T01:19:02.739Z,0.00
2018-04-26T01:20:02.798Z,0.00
2018-04-26T01:21:02.705Z,0.00
2018-04-26T01:22:02.688Z,0.00
2018-04-26T01:23:02.668Z,0.00
2018-04-26T01:24:02.649Z,0.00
2018-04-26T01:25:02.636Z,0.00
2018-04-26T01:26:02.614Z,0.00
2018-04-26T01:27:02.598Z,0.00
2018-04-26T01:28:02.583Z,0.00
2018-04-26T01:29:02.571Z,0.00
2018-04-26T01:30:02.553Z,0.00
2018-04-26T01:31:02.538Z,0.00
2018-04-26T01:32:02.513Z,0.00
2018-04-26T01:33:02.498Z,0.00
2018-04-26T01:34:02.480Z,0.00
2018-04-26T01:35:02.457Z,0.00
2018-04-26T01:36:02.452Z,0.00
2018-04-26T01:37:02.435Z,0.00
2018-04-26T01:38:02.409Z,0.00
2018-04-26T01:39:02.395Z,0.00
2018-04-26T01:40:02.377Z,0.00
2018-04-26T01:41:02.357Z,0.00
2018-04-26T01:42:02.341Z,0.00
2018-04-26T01:43:02.322Z,0.00
2018-04-26T01:44:02.309Z,0.00
2018-04-26T01:45:02.293Z,0.00
2018-04-26T01:46:02.273Z,0.00
2018-04-26T01:47:02.254Z,0.00
2018-04-26T01:48:02.237Z,0.00
2018-04-26T01:49:02.220Z,0.00
2018-04-26T01:50:02.202Z,0.00
2018-04-26T01:51:02.189Z,0.00
2018-04-26T01:52:02.169Z,0.00
2018-04-26T01:53:02.155Z,0.00
2018-04-26T01:54:02.134Z,0.00
2018-04-26T01:55:02.121Z,0.00
2018-04-26T01:56:02.098Z,0.00
2018-04-26T01:57:02.089Z,0.00
2018-04-26T01:58:02.067Z,0.00
2018-04-26T01:59:02.045Z,0.00
2018-04-26T02:00:02.043Z,0.00
2018-04-26T02:01:02.011Z,0.00
2018-04-26T02:02:01.997Z,0.00
2018-04-26T02:03:01.976Z,0.00
2018-04-26T02:04:01.969Z,0.00
2018-04-26T02:05:01.946Z,0.00
2018-04-26T02:06:01.926Z,0.00
2018-04-26T02:07:01.909Z,0.00
2018-04-26T02:08:01.897Z,0.00
2018-04-26T02:09:01.879Z,0.00
2018-04-26T02:10:01.858Z,0.00
2018-04-26T02:11:01.843Z,0.00
2018-04-26T02:12:01.826Z,0.00
2018-04-26T02:13:01.816Z,0.00
2018-04-26T02:14:01.789Z,0.00
2018-04-26T02:15:01.778Z,0.00
2018-04-26T02:16:01.758Z,0.00
2018-04-26T02:17:01.739Z,0.00
2018-04-26T02:18:01.717Z,0.00
2018-04-26T02:19:01.705Z,0.00
2018-04-26T02:20:01.690Z,0.00
2018-04-26T02:21:01.670Z,0.00
2018-04-26T02:22:01.649Z,0.00
2018-04-26T02:23:01.637Z,0.00
2018-04-26T02:24:01.621Z,0.00
2018-04-26T02:25:01.596Z,0.00
2018-04-26T02:26:01.580Z,0.00
2018-04-26T02:27:01.570Z,0.00
2018-04-26T02:28:01.551Z,0.00
2018-04-26T02:29:01.530Z,0.00
2018-04-26T02:30:01.510Z,0.00
2018-04-26T02:31:01.492Z,0.00
2018-04-26T02:32:01.482Z,0.00
2018-04-26T02:33:01.461Z,0.00
2018-04-26T02:34:01.441Z,0.00
2018-04-26T02:35:01.423Z,0.00
2018-04-26T02:36:01.410Z,0.00
2018-04-26T02:37:01.393Z,0.00
2018-04-26T02:38:01.375Z,0.00
2018-04-26T02:39:01.350Z,0.00
2018-04-26T02:40:01.337Z,0.00
2018-04-26T02:41:01.321Z,0.00
2018-04-26T02:42:01.301Z,0.00
2018-04-26T02:43:01.288Z,0.00
2018-04-26T02:44:01.271Z,0.00
2018-04-26T02:45:01.251Z,0.00
2018-04-26T02:46:01.231Z,0.00
2018-04-26T02:47:01.219Z,0.00
2018-04-26T02:48:01.210Z,0.00
2018-04-26T02:49:01.180Z,0.00
2018-04-26T02:50:01.158Z,0.00
2018-04-26T02:51:01.141Z,0.00
2018-04-26T02:52:01.124Z,0.00
2018-04-26T02:53:01.107Z,0.00
2018-04-26T02:54:01.088Z,0.00
2018-04-26T02:55:01.077Z,0.00
2018-04-26T02:56:01.052Z,0.00
2018-04-26T02:57:01.038Z,0.00
2018-04-26T02:58:01.016Z,0.00
2018-04-26T02:59:01.001Z,0.00
2018-04-26T03:00:00.988Z,0.00
2018-04-26T03:01:00.966Z,0.00
2018-04-26T03:02:00.947Z,0.00
2018-04-26T03:03:00.935Z,0.00
2018-04-26T03:04:00.912Z,0.00
2018-04-26T03:05:00.895Z,0.00
2018-04-26T03:06:00.880Z,0.00
2018-04-26T03:07:00.859Z,0.00
2018-04-26T03:08:00.847Z,0.00
2018-04-26T03:09:00.824Z,0.00
2018-04-26T03:10:00.807Z,0.00
2018-04-26T03:11:00.792Z,0.00
2018-04-26T03:12:00.776Z,0.00
2018-04-26T03:13:00.758Z,0.00
2018-04-26T03:14:00.743Z,0.00
2018-04-26T03:15:00.717Z,0.00
2018-04-26T03:16:00.701Z,0.00
2018-04-26T03:17:00.685Z,0.00
2018-04-26T03:18:00.671Z,0.00
2018-04-26T03:19:00.647Z,0.00
2018-04-26T03:20:00.885Z,0.00
2018-04-26T03:21:00.618Z,0.00
2018-04-26T03:22:00.594Z,0.00
2018-04-26T03:23:00.577Z,0.00
2018-04-26T03:24:00.558Z,0.00
2018-04-26T03:25:00.539Z,0.00
2018-04-26T03:26:00.526Z,0.00
2018-04-26T03:27:00.508Z,0.00
2018-04-26T03:28:00.496Z,0.00
2018-04-26T03:29:00.482Z,0.00
2018-04-26T03:30:00.454Z,0.00
2018-04-26T03:31:00.533Z,0.00
2018-04-26T03:32:00.417Z,0.00
2018-04-26T03:33:00.399Z,0.00
2018-04-26T03:34:00.381Z,0.00
2018-04-26T03:35:00.362Z,0.00
2018-04-26T03:36:00.356Z,0.00
2018-04-26T03:37:00.335Z,0.00
2018-04-26T03:38:00.315Z,0.00
2018-04-26T03:39:00.294Z,0.00
2018-04-26T03:40:00.277Z,0.00
2018-04-26T03:41:00.269Z,0.00
2018-04-26T03:42:00.241Z,0.00
2018-04-26T03:43:00.222Z,0.00
2018-04-26T03:44:00.202Z,0.00
2018-04-26T03:45:00.185Z,0.00
2018-04-26T03:46:00.170Z,0.00
2018-04-26T03:47:00.148Z,0.00
2018-04-26T03:48:00.135Z,0.00
2018-04-26T03:49:00.118Z,0.00
2018-04-26T03:50:00.098Z,0.00
2018-04-26T03:51:00.080Z,0.00
2018-04-26T03:52:00.058Z,0.00
2018-04-26T03:53:00.041Z,0.00
2018-04-26T03:54:00.031Z,0.00
2018-04-26T03:55:00.010Z,0.00
2018-04-26T03:55:59.987Z,0.00
2018-04-26T03:56:59.970Z,0.00
2018-04-26T03:57:59.949Z,0.00
2018-04-26T03:58:59.937Z,0.00
2018-04-26T03:59:59.917Z,0.00
2018-04-26T04:00:59.900Z,0.00
2018-04-26T04:01:59.880Z,0.00
2018-04-26T04:02:59.862Z,0.00
2018-04-26T04:03:59.846Z,0.00
2018-04-26T04:04:59.830Z,0.00
2018-04-26T04:05:59.807Z,0.00
2018-04-26T04:06:59.790Z,0.00
2018-04-26T04:07:59.777Z,0.00
2018-04-26T04:08:59.755Z,0.00
2018-04-26T04:09:59.738Z,0.00
2018-04-26T04:10:59.723Z,0.00
2018-04-26T04:11:59.704Z,0.00
2018-04-26T04:12:59.685Z,0.00
2018-04-26T04:13:59.670Z,0.00
2018-04-26T04:14:59.652Z,0.00
2018-04-26T04:15:59.647Z,0.00
2018-04-26T04:16:59.618Z,0.00
2018-04-26T04:17:59.592Z,0.00
2018-04-26T04:18:59.584Z,0.00
2018-04-26T04:19:59.559Z,0.00
2018-04-26T04:20:59.544Z,0.00
2018-04-26T04:21:59.548Z,0.00
2018-04-26T04:22:59.506Z,0.00
2018-04-26T04:23:59.486Z,0.00
2018-04-26T04:24:59.476Z,0.00
2018-04-26T04:25:59.454Z,0.00
2018-04-26T04:26:59.441Z,0.00
2018-04-26T04:27:59.442Z,0.00
2018-04-26T04:28:59.403Z,0.00
2018-04-26T04:29:59.382Z,0.00
2018-04-26T04:30:59.368Z,0.00
2018-04-26T04:31:59.348Z,0.00
2018-04-26T04:32:59.327Z,0.00
2018-04-26T04:33:59.309Z,0.00
2018-04-26T04:34:59.294Z,0.00
2018-04-26T04:35:59.280Z,0.00
2018-04-26T04:36:59.266Z,0.00
2018-04-26T04:37:59.237Z,0.00
2018-04-26T04:38:59.231Z,0.00
2018-04-26T04:39:59.210Z,0.00
2018-04-26T04:40:59.188Z,0.00
2018-04-26T04:41:59.166Z,0.00
2018-04-26T04:42:59.160Z,0.00
2018-04-26T04:43:59.142Z,0.00
2018-04-26T04:44:59.118Z,0.00
2018-04-26T04:45:59.100Z,0.00
2018-04-26T04:46:59.080Z,0.00
2018-04-26T04:47:59.130Z,0.00
2018-04-26T04:48:59.049Z,0.00
2018-04-26T04:49:59.027Z,0.00
2018-04-26T04:50:59.012Z,0.00
2018-04-26T04:51:59.000Z,5.63
2018-04-26T04:52:58.973Z,5.63
2018-04-26T04:53:58.958Z,5.63
2018-04-26T04:54:58.937Z,5.63
2018-04-26T04:55:58.917Z,5.63
2018-04-26T04:56:58.897Z,5.63
2018-04-26T04:57:58.882Z,5.63
2018-04-26T04:58:58.867Z,5.63
2018-04-26T04:59:58.998Z,5.63
2018-04-26T05:00:58.833Z,5.63
2018-04-26T05:01:58.870Z,5.63
2018-04-26T05:02:58.801Z,5.63
2018-04-26T05:03:58.777Z,5.63
2018-04-26T05:04:58.756Z,5.63
2018-04-26T05:05:58.748Z,11.25
2018-04-26T05:06:58.773Z,11.25
2018-04-26T05:07:58.713Z,11.25
2018-04-26T05:08:58.687Z,11.25
2018-04-26T05:09:58.719Z,16.88
2018-04-26T05:10:58.647Z,11.25
2018-04-26T05:11:58.630Z,11.25
2018-04-26T05:12:58.617Z,16.88
2018-04-26T05:13:58.648Z,16.88
2018-04-26T05:14:58.587Z,16.88
2018-04-26T05:15:58.714Z,22.50
2018-04-26T05:16:58.543Z,22.50
2018-04-26T05:17:58.585Z,22.50
2018-04-26T05:18:58.505Z,22.50
2018-04-26T05:19:58.636Z,28.13
2018-04-26T05:20:58.468Z,22.50
2018-04-26T05:21:58.494Z,22.50
2018-04-26T05:22:58.438Z,22.50
2018-04-26T05:23:58.416Z,22.50
2018-04-26T05:24:58.414Z,22.50
2018-04-26T05:25:58.429Z,22.50
2018-04-26T05:26:58.358Z,22.50
2018-04-26T05:27:58.347Z,22.50
2018-04-26T05:28:58.328Z,28.13
2018-04-26T05:29:58.310Z,28.13
2018-04-26T05:30:58.286Z,33.75
2018-04-26T05:31:58.323Z,39.38
2018-04-26T05:32:58.253Z,45.00
2018-04-26T05:33:58.235Z,45.00
2018-04-26T05:34:58.216Z,45.00
2018-04-26T05:35:58.209Z,45.00
2018-04-26T05:36:58.177Z,45.00
2018-04-26T05:37:58.172Z,45.00
2018-04-26T05:38:58.148Z,56.25
2018-04-26T05:39:58.127Z,61.88
2018-04-26T05:40:58.118Z,67.50
2018-04-26T05:41:58.092Z,84.38
2018-04-26T05:42:58.070Z,90.00
2018-04-26T05:43:58.052Z,95.63
2018-04-26T05:44:58.039Z,95.63
2018-04-26T05:45:58.018Z,95.63
2018-04-26T05:46:58.005Z,95.63
2018-04-26T05:47:57.989Z,84.38
2018-04-26T05:48:57.964Z,84.38
2018-04-26T05:49:57.951Z,84.38
2018-04-26T05:50:57.933Z,84.38
2018-04-26T05:51:57.922Z,90.00
2018-04-26T05:52:57.901Z,95.63
2018-04-26T05:53:57.881Z,90.00
2018-04-26T05:54:57.858Z,90.00
2018-04-26T05:55:57.988Z,90.00
2018-04-26T05:56:57.835Z,95.63
2018-04-26T05:57:57.807Z,101.25
2018-04-26T05:58:57.792Z,112.50
2018-04-26T05:59:57.782Z,112.50
2018-04-26T06:00:57.763Z,118.13
2018-04-26T06:01:57.740Z,106.88
2018-04-26T06:02:57.721Z,106.88
2018-04-26T06:03:57.705Z,106.88
2018-04-26T06:04:57.685Z,101.25
2018-04-26T06:05:57.666Z,101.25
2018-04-26T06:06:57.650Z,95.63
2018-04-26T06:07:57.638Z,90.00
2018-04-26T06:08:57.614Z,78.75
2018-04-26T06:09:57.596Z,78.75
2018-04-26T06:10:57.583Z,73.13
2018-04-26T06:11:57.560Z,73.13
2018-04-26T06:12:57.547Z,73.13
2018-04-26T06:13:57.529Z,67.50
2018-04-26T06:14:57.509Z,67.50
2018-04-26T06:15:57.504Z,73.13
2018-04-26T06:16:57.566Z,73.13
2018-04-26T06:17:57.465Z,78.75
2018-04-26T06:18:57.455Z,78.75
2018-04-26T06:19:57.428Z,78.75
2018-04-26T06:20:57.422Z,84.38
2018-04-26T06:21:57.391Z,61.88
2018-04-26T06:22:57.373Z,50.63
2018-04-26T06:23:57.357Z,61.88
2018-04-26T06:24:57.370Z,84.38
2018-04-26T06:25:57.319Z,112.50
2018-04-26T06:26:57.306Z,140.63
2018-04-26T06:27:57.347Z,163.13
2018-04-26T06:28:57.274Z,146.25
2018-04-26T06:29:57.249Z,135.00
2018-04-26T06:30:57.299Z,157.50
2018-04-26T06:31:57.230Z,140.63
2018-04-26T06:32:57.203Z,101.25
2018-04-26T06:33:57.284Z,90.00
2018-04-26T06:34:57.168Z,129.38
2018-04-26T06:35:57.150Z,151.88
2018-04-26T06:36:57.181Z,185.63
2018-04-26T06:37:57.118Z,191.25
2018-04-26T06:38:57.100Z,202.50
2018-04-26T06:39:57.080Z,213.75
2018-04-26T06:40:57.066Z,208.13
2018-04-26T06:41:57.051Z,185.63
2018-04-26T06:42:57.038Z,180.00
2018-04-26T06:43:57.063Z,174.38
2018-04-26T06:44:57.002Z,180.00
2018-04-26T06:45:56.979Z,180.00
2018-04-26T06:46:56.964Z,174.38
2018-04-26T06:47:57.111Z,180.00
2018-04-26T06:48:56.940Z,185.63
2018-04-26T06:49:56.914Z,185.63
2018-04-26T06:50:56.900Z,191.25
2018-04-26T06:51:56.883Z,208.13
2018-04-26T06:52:56.867Z,241.88
2018-04-26T06:53:56.848Z,292.50
2018-04-26T06:54:56.832Z,270.00
2018-04-26T06:55:56.823Z,208.13
2018-04-26T06:56:56.800Z,213.75
2018-04-26T06:57:56.788Z,157.50
2018-04-26T06:58:56.773Z,112.50
2018-04-26T06:59:56.753Z,101.25
2018-04-26T07:00:56.742Z,84.38
2018-04-26T07:01:56.722Z,73.13
2018-04-26T07:02:56.708Z,78.75
2018-04-26T07:03:56.689Z,84.38
2018-04-26T07:04:56.670Z,123.75
2018-04-26T07:05:56.657Z,101.25
2018-04-26T07:06:56.646Z,135.00
2018-04-26T07:07:56.634Z,146.25
2018-04-26T07:08:56.606Z,168.75
2018-04-26T07:09:56.601Z,168.75
2018-04-26T07:10:56.584Z,163.13
2018-04-26T07:11:56.566Z,303.75
2018-04-26T07:12:56.546Z,540.00
2018-04-26T07:13:56.531Z,1710.00
2018-04-26T07:14:56.510Z,483.75
2018-04-26T07:15:56.496Z,253.13
2018-04-26T07:16:56.488Z,399.38
2018-04-26T07:17:56.474Z,489.38
2018-04-26T07:18:56.451Z,376.88
2018-04-26T07:19:56.432Z,360.00
2018-04-26T07:20:56.417Z,1288.13
2018-04-26T07:21:56.411Z,286.88
2018-04-26T07:22:56.390Z,241.88
2018-04-26T07:23:56.379Z,1681.88
2018-04-26T07:24:56.360Z,1760.63
2018-04-26T07:25:56.350Z,703.13
2018-04-26T07:26:56.339Z,382.50
2018-04-26T07:27:56.332Z,1957.50
2018-04-26T07:28:56.323Z,1884.38
2018-04-26T07:29:56.300Z,219.38
2018-04-26T07:30:56.290Z,1665.00
2018-04-26T07:31:56.274Z,1743.75
2018-04-26T07:32:56.265Z,185.63
2018-04-26T07:33:56.255Z,1766.25
2018-04-26T07:34:56.255Z,112.50
2018-04-26T07:35:56.236Z,84.38
2018-04-26T07:36:56.219Z,106.88
2018-04-26T07:37:56.208Z,157.50
2018-04-26T07:38:56.196Z,140.63
2018-04-26T07:39:56.187Z,84.38
2018-04-26T07:40:56.174Z,101.25
2018-04-26T07:41:56.165Z,123.75
2018-04-26T07:42:56.149Z,84.38
2018-04-26T07:43:56.142Z,56.25
2018-04-26T07:44:56.126Z,73.13
2018-04-26T07:45:56.110Z,84.38
2018-04-26T07:46:56.095Z,118.13
2018-04-26T07:47:56.085Z,123.75
2018-04-26T07:48:56.070Z,151.88
2018-04-26T07:49:56.056Z,635.63
2018-04-26T07:50:56.041Z,202.50
2018-04-26T07:51:56.029Z,202.50
2018-04-26T07:52:56.016Z,185.63
2018-04-26T07:53:56.001Z,1203.75
2018-04-26T07:54:55.989Z,1738.13
2018-04-26T07:55:55.986Z,410.63
2018-04-26T07:56:55.962Z,1338.75
2018-04-26T07:57:55.948Z,1828.13
2018-04-26T07:58:55.939Z,1822.50
2018-04-26T07:59:55.932Z,607.50
2018-04-26T08:00:56.072Z,118.13
2018-04-26T08:01:55.907Z,101.25
2018-04-26T08:02:56.104Z,90.00
2018-04-26T08:03:55.880Z,90.00
2018-04-26T08:04:55.871Z,106.88
2018-04-26T08:05:55.867Z,1417.50
2018-04-26T08:06:55.843Z,466.88
2018-04-26T08:07:55.831Z,714.38
2018-04-26T08:08:55.821Z,1760.63
2018-04-26T08:09:55.811Z,630.00
2018-04-26T08:10:55.800Z,1946.25
2018-04-26T08:11:55.788Z,225.00
2018-04-26T08:12:55.785Z,331.88
2018-04-26T08:13:55.770Z,1946.25
2018-04-26T08:14:55.759Z,1828.13
2018-04-26T08:15:55.761Z,1411.88
2018-04-26T08:16:55.743Z,1451.25
2018-04-26T08:17:55.734Z,1012.50
2018-04-26T08:18:55.732Z,1350.00
2018-04-26T08:19:55.720Z,208.13
2018-04-26T08:20:55.711Z,135.00
2018-04-26T08:21:55.702Z,78.75
2018-04-26T08:22:55.689Z,67.50
2018-04-26T08:23:55.685Z,78.75
2018-04-26T08:24:55.735Z,106.88
2018-04-26T08:25:55.668Z,185.63
2018-04-26T08:26:55.656Z,1822.50
2018-04-26T08:27:55.642Z,1867.50
2018-04-26T08:28:55.634Z,1794.38
2018-04-26T08:29:55.622Z,1839.38
2018-04-26T08:30:55.619Z,483.75
2018-04-26T08:31:55.611Z,388.13
2018-04-26T08:32:55.595Z,337.50
2018-04-26T08:33:55.587Z,444.38
2018-04-26T08:34:55.580Z,433.13
2018-04-26T08:35:55.577Z,635.63
2018-04-26T08:36:55.607Z,1305.00
2018-04-26T08:37:55.556Z,1906.88
2018-04-26T08:38:55.557Z,348.75
2018-04-26T08:39:55.783Z,1085.63
2018-04-26T08:40:55.541Z,748.13
2018-04-26T08:41:55.529Z,247.50
2018-04-26T08:42:55.525Z,213.75
2018-04-26T08:43:55.583Z,562.50
2018-04-26T08:44:55.511Z,1912.50
2018-04-26T08:45:55.631Z,1507.50
2018-04-26T08:46:55.534Z,1698.75
2018-04-26T08:47:55.487Z,1580.63
2018-04-26T08:48:55.483Z,1468.13
2018-04-26T08:49:55.520Z,1698.75
2018-04-26T08:50:55.462Z,1721.25
2018-04-26T08:51:55.465Z,641.25
2018-04-26T08:52:55.462Z,1771.88
2018-04-26T08:53:55.449Z,225.00
2018-04-26T08:54:55.442Z,528.75
2018-04-26T08:55:55.430Z,1670.63
2018-04-26T08:56:55.424Z,1755.00
2018-04-26T08:57:55.428Z,1513.13
2018-04-26T08:58:55.414Z,1625.63
2018-04-26T08:59:55.403Z,556.88
2018-04-26T09:00:55.448Z,1704.38
2018-04-26T09:01:55.396Z,1636.88
2018-04-26T09:02:55.381Z,241.88
2018-04-26T09:03:55.377Z,163.13
2018-04-26T09:04:55.372Z,1535.63
2018-04-26T09:05:55.368Z,1265.63
2018-04-26T09:06:55.356Z,1766.25
2018-04-26T09:07:55.349Z,286.88
2018-04-26T09:08:55.345Z,444.38
2018-04-26T09:09:55.340Z,219.38
2018-04-26T09:10:55.330Z,225.00
2018-04-26T09:11:55.322Z,354.38
2018-04-26T09:12:55.311Z,225.00
2018-04-26T09:13:55.302Z,281.25
2018-04-26T09:14:55.291Z,168.75
2018-04-26T09:15:55.386Z,191.25
2018-04-26T09:16:55.277Z,118.13
2018-04-26T09:17:55.269Z,73.13
2018-04-26T09:18:55.262Z,67.50
2018-04-26T09:19:55.249Z,56.25
2018-04-26T09:20:55.243Z,61.88
2018-04-26T09:21:55.258Z,56.25
2018-04-26T09:22:55.221Z,45.00
2018-04-26T09:23:55.210Z,33.75
2018-04-26T09:24:55.197Z,28.13
2018-04-26T09:25:55.189Z,33.75
2018-04-26T09:26:55.174Z,33.75
2018-04-26T09:27:55.159Z,39.38
2018-04-26T09:28:55.157Z,45.00
2018-04-26T09:29:55.136Z,50.63
2018-04-26T09:30:55.130Z,56.25
2018-04-26T09:31:55.111Z,61.88
2018-04-26T09:32:55.098Z,84.38
2018-04-26T09:33:55.090Z,528.75
2018-04-26T09:34:55.074Z,860.63
2018-04-26T09:35:55.056Z,466.88
2018-04-26T09:36:55.042Z,450.00
2018-04-26T09:37:55.030Z,461.25
2018-04-26T09:38:55.020Z,495.00
2018-04-26T09:39:55.010Z,489.38
2018-04-26T09:40:54.991Z,461.25
2018-04-26T09:41:54.980Z,438.75
2018-04-26T09:42:54.981Z,427.50
2018-04-26T09:43:54.960Z,427.50
2018-04-26T09:44:54.973Z,416.25
2018-04-26T09:45:54.940Z,405.00
2018-04-26T09:46:54.920Z,393.75
2018-04-26T09:47:54.911Z,410.63
2018-04-26T09:48:54.900Z,405.00
2018-04-26T09:49:54.885Z,393.75
2018-04-26T09:50:54.875Z,393.75
2018-04-26T09:51:54.858Z,376.88
2018-04-26T09:52:54.850Z,450.00
2018-04-26T09:53:54.837Z,450.00
2018-04-26T09:54:54.831Z,421.88
2018-04-26T09:55:54.819Z,410.63
2018-04-26T09:56:54.834Z,399.38
2018-04-26T09:57:54.798Z,405.00
2018-04-26T09:58:54.790Z,388.13
2018-04-26T09:59:54.780Z,376.88
2018-04-26T10:00:54.774Z,388.13
2018-04-26T10:01:54.757Z,382.50
2018-04-26T10:02:54.750Z,388.13
2018-04-26T10:03:54.741Z,230.63
2018-04-26T10:04:54.727Z,421.88
2018-04-26T10:05:54.719Z,270.00
2018-04-26T10:06:54.722Z,371.25
2018-04-26T10:07:54.690Z,393.75
2018-04-26T10:08:54.679Z,376.88
2018-04-26T10:09:54.667Z,399.38
2018-04-26T10:10:54.658Z,405.00
2018-04-26T10:11:54.658Z,270.00
2018-04-26T10:12:54.634Z,410.63
2018-04-26T10:13:54.628Z,450.00
2018-04-26T10:14:54.616Z,421.88
2018-04-26T10:15:54.618Z,410.63
2018-04-26T10:16:54.664Z,258.75
2018-04-26T10:17:54.591Z,191.25
2018-04-26T10:18:54.574Z,151.88
2018-04-26T10:19:54.565Z,129.38
2018-04-26T10:20:54.549Z,118.13
2018-04-26T10:21:54.537Z,118.13
2018-04-26T10:22:54.534Z,118.13
2018-04-26T10:23:54.519Z,112.50
2018-04-26T10:24:54.509Z,106.88
2018-04-26T10:25:54.510Z,112.50
2018-04-26T10:26:54.489Z,123.75
2018-04-26T10:27:54.478Z,157.50
2018-04-26T10:28:54.459Z,196.88
2018-04-26T10:29:54.484Z,371.25
2018-04-26T10:30:54.451Z,253.13
2018-04-26T10:31:54.425Z,382.50
2018-04-26T10:32:54.426Z,382.50
2018-04-26T10:33:54.486Z,365.63
2018-04-26T10:34:54.389Z,360.00
2018-04-26T10:35:54.419Z,354.38
2018-04-26T10:36:54.363Z,343.13
2018-04-26T10:37:54.407Z,343.13
2018-04-26T10:38:54.339Z,343.13
2018-04-26T10:39:54.329Z,348.75
2018-04-26T10:40:54.318Z,337.50
2018-04-26T10:41:54.443Z,230.63
2018-04-26T10:42:54.296Z,241.88
2018-04-26T10:43:54.332Z,258.75
2018-04-26T10:44:54.269Z,298.13
2018-04-26T10:45:54.375Z,376.88
2018-04-26T10:46:54.249Z,360.00
2018-04-26T10:47:54.239Z,320.63
2018-04-26T10:48:54.223Z,303.75
2018-04-26T10:49:54.216Z,410.63
2018-04-26T10:50:54.199Z,247.50
2018-04-26T10:51:54.188Z,213.75
2018-04-26T10:52:54.257Z,376.88
2018-04-26T10:53:54.165Z,270.00
2018-04-26T10:54:54.152Z,365.63
2018-04-26T10:55:54.149Z,365.63
2018-04-26T10:56:54.138Z,196.88
2018-04-26T10:57:54.123Z,202.50
2018-04-26T10:58:54.117Z,253.13
2018-04-26T10:59:54.101Z,219.38
2018-04-26T11:00:54.090Z,219.38
2018-04-26T11:01:54.078Z,298.13
2018-04-26T11:02:54.073Z,365.63
2018-04-26T11:03:54.057Z,191.25
2018-04-26T11:04:54.048Z,343.13
2018-04-26T11:05:54.034Z,202.50
2018-04-26T11:06:54.039Z,354.38
2018-04-26T11:07:54.012Z,348.75
2018-04-26T11:08:54.007Z,354.38
2018-04-26T11:09:53.980Z,354.38
2018-04-26T11:10:53.967Z,315.00
2018-04-26T11:11:53.961Z,202.50
2018-04-26T11:12:53.947Z,343.13
2018-04-26T11:13:53.937Z,241.88
2018-04-26T11:14:53.929Z,196.88
2018-04-26T11:15:53.915Z,146.25
2018-04-26T11:16:53.902Z,101.25
2018-04-26T11:17:53.898Z,78.75
2018-04-26T11:18:53.879Z,67.50
2018-04-26T11:19:53.871Z,67.50
2018-04-26T11:20:53.861Z,84.38
2018-04-26T11:21:53.848Z,101.25
2018-04-26T11:22:53.830Z,135.00
2018-04-26T11:23:53.820Z,286.88
2018-04-26T11:24:53.812Z,253.13
2018-04-26T11:25:53.802Z,337.50
2018-04-26T11:26:53.782Z,354.38
2018-04-26T11:27:53.767Z,365.63
2018-04-26T11:28:53.759Z,354.38
2018-04-26T11:29:53.822Z,343.13
2018-04-26T11:30:53.810Z,343.13
2018-04-26T11:31:53.721Z,331.88
2018-04-26T11:32:53.712Z,326.25
2018-04-26T11:33:53.700Z,320.63
2018-04-26T11:34:53.690Z,315.00
2018-04-26T11:35:53.679Z,315.00
2018-04-26T11:36:53.665Z,315.00
2018-04-26T11:37:53.659Z,315.00
2018-04-26T11:38:53.639Z,326.25
2018-04-26T11:39:53.630Z,286.88
2018-04-26T11:40:53.626Z,163.13
2018-04-26T11:41:53.606Z,157.50
2018-04-26T11:42:53.598Z,163.13
2018-04-26T11:43:53.585Z,163.13
2018-04-26T11:44:53.583Z,157.50
2018-04-26T11:45:53.564Z,163.13
2018-04-26T11:46:53.549Z,168.75
2018-04-26T11:47:53.543Z,309.38
2018-04-26T11:48:53.548Z,236.25
2018-04-26T11:49:53.516Z,253.13
2018-04-26T11:50:53.519Z,225.00
2018-04-26T11:51:53.500Z,230.63
2018-04-26T11:52:53.489Z,303.75
2018-04-26T11:53:53.482Z,337.50
2018-04-26T11:54:53.470Z,174.38
2018-04-26T11:55:53.446Z,157.50
2018-04-26T11:56:53.438Z,135.00
2018-04-26T11:57:53.420Z,112.50
2018-04-26T11:58:53.434Z,90.00
2018-04-26T11:59:53.399Z,61.88
2018-04-26T12:00:53.388Z,45.00
2018-04-26T12:01:53.379Z,33.75
2018-04-26T12:02:53.389Z,28.13
2018-04-26T12:03:53.354Z,22.50
2018-04-26T12:04:53.340Z,16.88
2018-04-26T12:05:53.319Z,16.88
2018-04-26T12:06:53.313Z,11.25
2018-04-26T12:07:53.299Z,11.25
2018-04-26T12:08:53.295Z,11.25
2018-04-26T12:09:53.270Z,16.88
2018-04-26T12:10:53.259Z,16.88
2018-04-26T12:11:53.251Z,16.88
2018-04-26T12:12:53.232Z,16.88
2018-04-26T12:13:53.213Z,22.50
2018-04-26T12:14:53.206Z,33.75
2018-04-26T12:15:53.198Z,39.38
2018-04-26T12:16:53.182Z,45.00
2018-04-26T12:17:53.156Z,56.25
2018-04-26T12:18:53.152Z,56.25
2018-04-26T12:19:53.130Z,67.50
2018-04-26T12:20:53.112Z,67.50
2018-04-26T12:21:53.102Z,56.25
2018-04-26T12:22:53.083Z,45.00
2018-04-26T12:23:53.079Z,39.38
2018-04-26T12:24:53.069Z,39.38
2018-04-26T12:25:53.041Z,39.38
2018-04-26T12:26:53.040Z,39.38
2018-04-26T12:27:53.013Z,50.63
2018-04-26T12:28:52.997Z,73.13
2018-04-26T12:29:52.984Z,101.25
2018-04-26T12:30:52.969Z,298.13
2018-04-26T12:31:52.951Z,320.63
2018-04-26T12:32:52.942Z,348.75
2018-04-26T12:33:52.920Z,348.75
2018-04-26T12:34:52.911Z,331.88
2018-04-26T12:35:52.901Z,202.50
2018-04-26T12:36:52.878Z,343.13
2018-04-26T12:37:52.876Z,331.88
2018-04-26T12:38:52.849Z,270.00
2018-04-26T12:39:52.834Z,331.88
2018-04-26T12:40:52.827Z,163.13
2018-04-26T12:41:52.815Z,112.50
2018-04-26T12:42:52.798Z,95.63
2018-04-26T12:43:52.788Z,84.38
2018-04-26T12:44:52.781Z,61.88
2018-04-26T12:45:52.758Z,45.00
2018-04-26T12:46:52.742Z,45.00
2018-04-26T12:47:52.730Z,50.63
2018-04-26T12:48:52.716Z,67.50
2018-04-26T12:49:52.720Z,90.00